Airfield :
LOGIN :

Register | Disclaimer

   EN    FR    IT 

 










Legend :    VFR   Marginal VFR   IFR   Intensive IFR   Very Intensive IFR
Visi :
Ceiling :
>= 8 km
>= 3000ft
5 to 8 km
1000 to 3000 ft
1500m to 5 km
500 to 1000 ft
800 to 1500m
200 to 500 ft
< 800m
< 200 ft
Symbols :   Thunderstorms  Fog  Heavy snow  Heavy precipitations  Wind > 20 kt
SIGMETs :     Misc.  Thunderstorms  Icing  Turbulence  Mountain Waves  Volcanic Ashes






- Airport Elevation : 18 ft


LIPC - Cervia AFB Ravenna

CURRENT METAR :
  • 250655Z 29006KT 0400 R11/1000 FG BKN002 SCT008 02/M00 Q1034

EXPIRED METARs :
  • 250555Z 28005KT 0200 R11/0500 FG BKN001 SCT005 02/M00 Q1034
  • 250455Z 28007KT 0200 R11/0550 FG BKN001 SCT005 01/M01 Q1034

TAF TAF LIPC
Valid from the 25 at 06:00 until the 25 at 15:00 UTC


250500Z 2506/2515 30006KT 0200 FG BKN001
BECMG 2506/2508 1000 BR BKN020
BECMG 2509/2511 3000
PROB40
TEMPO 2511/2513 6000 NSW BKN040



MET'MAP, your aeronautical weather chart ! - Copyright ORBIFLY December 2007 - Disclaimer

ORBIFLY MET'MAP TEAM :

Programming & Development : Alexandra Zaïnal
Original concept : Baudouin d'Aumeries
Technical & hardware support : Manuel Goepfert
Assistance : Marc-Olivier Méhu

Contact : metmap@orbifly.com




SOURCES & CREDITS :

   NOAA